Catàleg de serveis del Meteocat

Dades de l'estació automàtica Vinyols i els Arcs

?
?
Resum diari 22:30 TU
Dades diàries de l'estació meteorològica
Temperatura mitjana 11.4 °C
Temperatura màxima 16.6 °C 12:21 TU
Temperatura mínima 8.0 °C 22:59 TU
Humitat relativa mitjana 89%
Precipitació acumulada 5.7 mm
Ratxa màxima del vent (2 m) 30.2 km/h - 304º 17:10 TU
Irradiació solar global 5.2 MJ/m2

El tram horari està expressat en Temps Universal (TU). Cal sumar una hora en horari d'hivern i dues en horari d'estiu per passar a l'hora oficial.

Vinyols i els Arcs

Metadades estació meteorol´gica
Municipi Vinyols i els Arcs
Comarca Baix Camp
Altitud 29 m
Data alta 17.05.1989
Estat actual Operativa
Dades de període
Període
TU
TM
°C
TX
°C
TN
°C
HRM
%
PPT
mm
VVM (2 m)
km/h
DVM (2 m)
graus
VVX (2 m)
km/h
RS
W/m2
00:00 - 00:30 11.1 11.8 10.4 87 0.0 1.1 304 2.9 0
00:30 - 01:00 10.5 10.6 10.4 89 0.0 2.2 305 5.4 0
01:00 - 01:30 10.2 10.5 9.9 90 0.0 1.8 314 5.0 0
01:30 - 02:00 9.7 10.1 9.5 92 0.0 2.5 342 5.8 0
02:00 - 02:30 9.6 9.8 9.4 91 0.0 2.9 335 6.5 0
02:30 - 03:00 9.4 9.5 9.2 92 0.0 2.5 329 5.8 0
03:00 - 03:30 9.1 9.2 8.9 92 0.0 3.6 331 7.9 0
03:30 - 04:00 8.8 8.9 8.7 93 0.0 3.2 323 6.1 0
04:00 - 04:30 9.0 9.2 8.8 93 0.0 3.2 332 7.9 0
04:30 - 05:00 9.4 9.7 9.3 91 0.0 2.2 328 7.9 0
05:00 - 05:30 9.8 9.9 9.7 90 0.0 2.2 324 6.5 0
05:30 - 06:00 9.8 9.9 9.8 92 0.2 1.1 341 5.4 0
06:00 - 06:30 9.4 9.8 9.1 95 0.0 0.7 360 3.6 4
06:30 - 07:00 9.3 9.4 9.2 96 0.0 2.2 347 6.5 9
07:00 - 07:30 9.7 10.1 9.3 94 0.1 1.8 338 5.8 35
07:30 - 08:00 10.4 10.8 10.1 92 0.0 1.4 2 5.0 59
08:00 - 08:30 11.0 11.1 10.8 91 0.0 0.7 354 3.2 43
08:30 - 09:00 11.4 11.8 11.2 92 0.0 1.8 359 6.1 80
09:00 - 09:30 12.3 12.6 11.9 89 0.0 1.8 10 6.5 100
09:30 - 10:00 13.0 13.4 12.6 87 0.0 2.2 31 5.8 155
10:00 - 10:30 13.8 14.1 13.5 83 0.0 2.9 50 8.3 204
10:30 - 11:00 14.2 14.3 14.0 79 0.0 3.2 47 9.0 194
11:00 - 11:30 14.5 14.7 14.2 80 0.0 2.5 63 7.2 212
11:30 - 12:00 14.7 15.2 14.6 81 0.0 2.2 69 6.5 232
12:00 - 12:30 16.0 16.6 15.2 78 0.0 1.8 45 7.6 404
12:30 - 13:00 16.1 16.5 15.5 77 0.0 2.2 51 7.2 261
13:00 - 13:30 15.8 16.2 15.5 77 0.0 1.8 118 6.1 199
13:30 - 14:00 15.5 15.7 15.3 79 0.0 2.9 125 9.4 163
14:00 - 14:30 15.8 15.9 15.6 79 0.0 2.2 95 6.5 198
14:30 - 15:00 15.4 15.6 15.3 81 0.0 2.2 78 5.8 126
15:00 - 15:30 15.3 15.6 15.0 82 0.0 2.5 68 7.9 85
15:30 - 16:00 14.8 15.0 14.6 85 0.0 1.8 65 5.4 48
16:00 - 16:30 14.1 14.6 13.4 89 0.0 0.7 40 3.2 18
16:30 - 17:00 13.4 13.6 13.2 92 0.0 1.4 45 5.0 5
17:00 - 17:30 12.0 13.8 9.2 86 4.1 7.6 309 30.2 6
17:30 - 18:00 9.2 9.5 9.1 96 0.9 1.4 356 7.6 5
18:00 - 18:30 9.6 9.7 9.5 97 0.4 1.8 345 7.2 5
18:30 - 19:00 9.7 9.8 9.7 97 0.0 1.8 7 5.4 5
19:00 - 19:30 9.7 9.8 9.5 97 0.0 1.1 331 4.3 4
19:30 - 20:00 9.4 9.5 9.3 97 0.0 0.4 11 4.3 4
20:00 - 20:30 9.4 9.6 9.3 97 0.0 1.4 328 6.1 4
20:30 - 21:00 9.3 9.6 9.0 96 0.0 1.8 337 5.0 4
21:00 - 21:30 8.8 9.1 8.5 96 0.0 1.8 328 8.3 4
21:30 - 22:00 8.7 9.0 8.6 95 0.0 3.2 305 6.5 4
22:00 - 22:30 9.2 9.5 8.7 91 0.0 4.3 304 9.7 4
22:30 - 23:00 8.5 8.7 8.0 92 0.0 1.8 311 6.8 4

Les dades en taronja només han passat un control de qualitat automàtic. Resta pendent la seva validació definitiva.